NCAR-RAP Real-Time Weather Data

Output produced by METARs form (20 September 2014  18:00 UTC)
found at http://weather.rap.ucar.edu/surface/
 
Conditions at: K4O4 observed 20 September 2014  17:55 UTC
Temperature: 30.0°C (86°F)
Dewpoint: 19.0°C (66°F) [RH = 52%]
Pressure (altimeter): 30.05 inches Hg (1017.7 mb)
Winds: from the SE (140 degrees) at 7 MPH (6 knots; 3.1 m/s)
Visibility: 10 or more miles (16+ km)
Ceiling: at least 12,000 feet AGL
Clouds: sky clear below 12,000 feet AGL
Present Weather: automated observation with no human augmentation;
there may or may not be significant weather present at this time
K4O4 201755Z AUTO 14006KT 10SM CLR 30/19 A3005 RMK AO2